Time;durP1;ratioP1;P1;durP2;ratioP2;P2;SDS_P1;SDS_P2;PMS_P1;PMS_P2;Temp;Humidity;BMP_temperature;BMP_pressure;BME280_temperature;BME280_humidity;BME280_pressure;Samples;Min_cycle;Max_cycle;Signal;HPM_P1;HPM_P2
2023/07/02 00:00:11;;;;;;;14.63;7.05;;;;;;;16.61;85.25;100606.88;4989765;28;20045;-67
2023/07/02 00:02:37;;;;;;;19.38;7.25;;;;;;;16.55;85.43;100600.09;4989405;28;20049;-67
2023/07/02 00:05:02;;;;;;;15.00;6.63;;;;;;;16.56;85.29;100608.19;4987841;28;20077;-69
2023/07/02 00:07:28;;;;;;;14.60;7.28;;;;;;;16.50;85.98;100602.44;5002689;28;20124;-70
2023/07/02 00:09:53;;;;;;;18.50;7.63;;;;;;;16.48;86.60;100597.13;5002764;28;20509;-70
2023/07/02 00:12:19;;;;;;;16.35;6.80;;;;;;;16.51;85.69;100598.69;4988412;28;20038;-70
2023/07/02 00:14:44;;;;;;;19.60;7.43;;;;;;;16.51;85.53;100605.06;4988586;28;20026;-70
2023/07/02 00:17:12;;;;;;;18.08;7.75;;;;;;;16.52;85.32;100601.28;5006756;28;20041;-67
2023/07/02 00:19:41;;;;;;;16.80;7.55;;;;;;;16.51;85.26;100591.31;5008446;28;20025;-68
2023/07/02 00:22:07;;;;;;;16.88;6.78;;;;;;;16.50;85.36;100600.56;5007566;28;20034;-66
2023/07/02 00:24:33;;;;;;;19.58;7.65;;;;;;;16.49;85.51;100589.75;5002400;28;20113;-67
2023/07/02 00:26:58;;;;;;;17.75;7.13;;;;;;;16.50;85.36;100583.22;4988699;28;20130;-69
2023/07/02 00:29:23;;;;;;;18.60;7.13;;;;;;;16.49;85.43;100578.75;5004063;28;20069;-69
2023/07/02 00:31:49;;;;;;;17.55;8.20;;;;;;;16.45;85.35;100569.94;4989924;28;20101;-70
2023/07/02 00:34:14;;;;;;;19.80;7.50;;;;;;;16.40;85.73;100577.81;4999560;28;20397;-69
2023/07/02 00:36:41;;;;;;;19.80;7.93;;;;;;;16.33;85.91;100582.19;5002450;28;20041;-68
2023/07/02 00:39:07;;;;;;;17.35;7.60;;;;;;;16.29;85.97;100580.78;5003161;28;20034;-69
2023/07/02 00:41:32;;;;;;;20.38;8.30;;;;;;;16.26;86.36;100584.69;4987877;28;20037;-69
2023/07/02 00:43:57;;;;;;;20.30;8.18;;;;;;;16.19;86.51;100590.97;4988345;28;20112;-69
2023/07/02 00:46:25;;;;;;;23.55;8.80;;;;;;;16.18;85.93;100605.69;4987436;28;20460;-70
2023/07/02 00:48:55;;;;;;;20.75;8.73;;;;;;;16.14;86.27;100607.88;5001833;28;20041;-69
2023/07/02 00:51:23;;;;;;;19.63;7.95;;;;;;;16.13;86.39;100608.03;5007338;28;20422;-69
2023/07/02 00:53:51;;;;;;;20.10;9.55;;;;;;;16.08;86.43;100620.31;5001822;28;20021;-69
2023/07/02 00:56:17;;;;;;;24.23;8.70;;;;;;;16.10;86.47;100613.84;5006754;28;20045;-69
2023/07/02 00:58:48;;;;;;;18.55;9.25;;;;;;;16.08;86.56;100622.19;4998334;28;20374;-69
2023/07/02 01:01:25;;;;;;;17.45;8.63;;;;;;;16.10;85.65;100616.59;4988751;28;20049;-69
2023/07/02 01:03:53;;;;;;;22.38;10.13;;;;;;;16.09;86.58;100618.47;5005140;28;20095;-69
2023/07/02 01:06:24;;;;;;;21.40;9.90;;;;;;;16.09;86.28;100626.69;5005904;28;20532;-69
2023/07/02 01:08:54;;;;;;;21.23;9.27;;;;;;;16.10;85.84;100622.06;5007533;28;20037;-69
2023/07/02 01:11:22;;;;;;;24.30;9.75;;;;;;;16.08;86.07;100616.72;4992401;28;20434;-69
2023/07/02 01:13:50;;;;;;;24.75;10.55;;;;;;;16.06;86.26;100622.38;4988069;28;20458;-69
2023/07/02 01:16:16;;;;;;;26.70;9.80;;;;;;;16.05;86.20;100623.38;4986475;28;20038;-69
2023/07/02 01:18:42;;;;;;;21.05;10.98;;;;;;;16.03;86.37;100624.53;4988743;28;20037;-69
2023/07/02 01:21:08;;;;;;;25.80;10.27;;;;;;;15.96;86.31;100626.19;4987257;28;20417;-69
2023/07/02 01:23:34;;;;;;;32.42;11.95;;;;;;;15.91;86.96;100623.91;4985762;28;20038;-69
2023/07/02 01:26:01;;;;;;;24.75;11.80;;;;;;;15.87;86.58;100627.94;4986402;28;20085;-70
2023/07/02 01:28:35;;;;;;;26.98;11.50;;;;;;;15.84;86.91;100624.63;5002507;28;20030;-69
2023/07/02 01:31:00;;;;;;;28.05;12.02;;;;;;;15.77;87.51;100627.13;4987566;28;20042;-70
2023/07/02 01:33:26;;;;;;;36.92;12.75;;;;;;;15.72;88.05;100637.69;5002297;28;20043;-69
2023/07/02 01:35:51;;;;;;;26.13;12.10;;;;;;;15.71;88.29;100646.91;5006699;28;20045;-69
2023/07/02 01:38:17;;;;;;;29.48;12.40;;;;;;;15.70;87.93;100642.44;5002810;28;20037;-69
2023/07/02 01:40:42;;;;;;;27.17;12.40;;;;;;;15.71;88.31;100638.69;4987504;28;20088;-70
2023/07/02 01:43:08;;;;;;;24.30;12.40;;;;;;;15.69;88.57;100646.19;5002073;28;20478;-69
2023/07/02 01:45:33;;;;;;;27.65;12.00;;;;;;;15.67;88.58;100643.63;4987862;28;20035;-70
2023/07/02 01:47:58;;;;;;;25.52;12.50;;;;;;;15.66;88.04;100647.34;4988317;28;20125;-69
2023/07/02 01:50:24;;;;;;;30.00;12.85;;;;;;;15.66;88.07;100641.00;4985638;28;20046;-69
2023/07/02 01:52:51;;;;;;;29.13;13.27;;;;;;;15.64;88.02;100643.03;4985553;28;20034;-70
2023/07/02 01:55:17;;;;;;;32.85;13.10;;;;;;;15.61;88.58;100637.81;4985404;28;20038;-70
2023/07/02 01:57:42;;;;;;;28.63;12.23;;;;;;;15.60;88.79;100647.06;4986020;28;20042;-69
2023/07/02 02:00:09;;;;;;;30.80;13.15;;;;;;;15.58;88.76;100649.97;5002711;28;20034;-69
2023/07/02 02:02:43;;;;;;;28.98;12.30;;;;;;;15.56;88.21;100641.00;4991572;28;20077;-70
2023/07/02 02:05:09;;;;;;;31.70;13.45;;;;;;;15.60;88.60;100649.81;4986867;28;20069;-69
2023/07/02 02:07:35;;;;;;;29.50;13.18;;;;;;;15.57;88.92;100646.34;4986788;28;20133;-69
2023/07/02 02:10:05;;;;;;;28.38;12.27;;;;;;;15.59;88.43;100654.44;5005967;28;20038;-69
2023/07/02 02:12:31;;;;;;;32.08;12.85;;;;;;;15.62;88.73;100654.13;4998256;28;20057;-70
2023/07/02 02:14:56;;;;;;;31.67;13.60;;;;;;;15.61;89.34;100649.66;5002654;28;20038;-70
2023/07/02 02:17:23;;;;;;;36.10;13.00;;;;;;;15.56;89.42;100652.84;5000901;28;20133;-70
2023/07/02 02:19:49;;;;;;;34.35;12.82;;;;;;;15.55;88.76;100653.84;4985695;28;20457;-69
2023/07/02 02:22:15;;;;;;;29.73;13.27;;;;;;;15.50;89.35;100652.56;4987068;28;20109;-70
2023/07/02 02:24:40;;;;;;;33.75;14.23;;;;;;;15.46;89.64;100653.88;4985708;28;20076;-70
2023/07/02 02:27:05;;;;;;;31.50;15.25;;;;;;;15.44;89.07;100650.44;4985149;28;20092;-69
2023/07/02 02:29:31;;;;;;;35.78;15.07;;;;;;;15.38;90.15;100648.25;4986916;28;20102;-69
2023/07/02 02:31:56;;;;;;;39.42;14.57;;;;;;;15.35;90.07;100660.41;5003196;28;20477;-70
2023/07/02 02:34:22;;;;;;;31.20;13.18;;;;;;;15.32;89.84;100661.53;4997856;28;20038;-70
2023/07/02 02:36:47;;;;;;;34.28;13.95;;;;;;;15.26;90.34;100662.13;4984886;28;20054;-70
2023/07/02 02:39:14;;;;;;;38.65;13.80;;;;;;;15.25;90.28;100656.81;5002728;28;20061;-70
2023/07/02 02:41:39;;;;;;;39.17;14.80;;;;;;;15.22;90.02;100665.31;5008386;28;20429;-69
2023/07/02 02:44:04;;;;;;;28.25;13.27;;;;;;;15.18;90.15;100664.72;5008729;28;20351;-70
2023/07/02 02:46:31;;;;;;;29.77;14.13;;;;;;;15.12;90.38;100669.94;5007107;28;20029;-70
2023/07/02 02:48:56;;;;;;;33.90;14.00;;;;;;;15.09;91.30;100676.56;5004624;28;20110;-70
2023/07/02 02:51:22;;;;;;;30.38;13.93;;;;;;;15.03;91.39;100672.53;4988664;28;20498;-70
2023/07/02 02:53:47;;;;;;;32.67;13.95;;;;;;;15.01;90.85;100674.56;4996875;28;20423;-70
2023/07/02 02:56:12;;;;;;;35.70;14.48;;;;;;;15.02;90.62;100681.75;4989900;28;20422;-69
2023/07/02 02:58:38;;;;;;;35.85;14.25;;;;;;;15.01;90.59;100679.16;4990666;28;20042;-70
2023/07/02 03:01:10;;;;;;;30.30;14.07;;;;;;;14.99;90.93;100682.03;5005135;28;20743;-70
2023/07/02 03:03:38;;;;;;;35.60;14.20;;;;;;;14.97;90.74;100683.22;5004403;28;20104;-69
2023/07/02 03:06:04;;;;;;;28.38;12.38;;;;;;;14.92;90.76;100683.63;5004680;28;20128;-70
2023/07/02 03:08:30;;;;;;;38.45;13.02;;;;;;;14.93;90.81;100695.47;5004710;28;20042;-69
2023/07/02 03:10:55;;;;;;;32.13;13.20;;;;;;;14.91;90.74;100691.97;5004095;28;20038;-69
2023/07/02 03:13:21;;;;;;;34.75;14.95;;;;;;;14.85;91.06;100693.44;5004827;28;20030;-69
2023/07/02 03:15:46;;;;;;;33.10;14.23;;;;;;;14.86;91.28;100697.88;5005196;28;20514;-70
2023/07/02 03:18:11;;;;;;;28.67;13.48;;;;;;;14.85;90.98;100701.63;4989084;28;20266;-69
2023/07/02 03:20:37;;;;;;;31.33;13.35;;;;;;;14.84;91.61;100699.06;5008882;28;20045;-70
2023/07/02 03:23:02;;;;;;;33.90;13.60;;;;;;;14.85;91.33;100704.38;5008963;28;20028;-70
2023/07/02 03:25:27;;;;;;;30.90;13.93;;;;;;;14.84;91.36;100710.00;5007665;28;20112;-70
2023/07/02 03:27:53;;;;;;;31.98;13.65;;;;;;;14.83;91.15;100716.47;4989292;28;20034;-69
2023/07/02 03:30:18;;;;;;;35.22;14.27;;;;;;;14.76;91.57;100708.81;4989578;28;20046;-69
2023/07/02 03:32:43;;;;;;;24.73;12.65;;;;;;;14.72;91.40;100707.38;4990866;28;20029;-69
2023/07/02 03:35:09;;;;;;;30.23;13.25;;;;;;;14.72;90.73;100715.59;4989588;28;20038;-69
2023/07/02 03:37:34;;;;;;;28.05;13.65;;;;;;;14.71;90.92;100716.59;4989320;28;20597;-69
2023/07/02 03:39:59;;;;;;;34.78;13.60;;;;;;;14.69;91.29;100712.28;4989233;28;20030;-70
2023/07/02 03:42:25;;;;;;;29.90;11.85;;;;;;;14.68;91.59;100716.88;4989430;28;20125;-69
2023/07/02 03:44:50;;;;;;;31.20;13.13;;;;;;;14.69;91.10;100721.38;4989907;28;20364;-70
2023/07/02 03:47:16;;;;;;;30.15;12.57;;;;;;;14.70;90.38;100724.97;4987701;28;20061;-70
2023/07/02 03:49:42;;;;;;;26.27;13.60;;;;;;;14.70;89.95;100724.97;5023444;28;20046;-69
2023/07/02 03:52:07;;;;;;;30.50;13.15;;;;;;;14.67;90.14;100725.25;5000136;28;20093;-69
2023/07/02 03:54:32;;;;;;;29.92;12.85;;;;;;;14.63;89.57;100721.91;4988565;28;20577;-70
2023/07/02 03:56:58;;;;;;;29.17;12.82;;;;;;;14.66;89.15;100724.38;4989223;28;20407;-70
2023/07/02 03:59:23;;;;;;;33.42;12.77;;;;;;;14.68;89.27;100727.81;4987739;28;20074;-69
2023/07/02 04:01:49;;;;;;;28.25;12.20;;;;;;;14.69;88.66;100734.19;4989922;28;20030;-69
2023/07/02 04:04:14;;;;;;;31.23;11.85;;;;;;;14.71;88.33;100735.78;4989687;28;20034;-70
2023/07/02 04:06:40;;;;;;;28.45;11.48;;;;;;;14.73;88.52;100741.09;4987995;28;20038;-70
2023/07/02 04:09:05;;;;;;;30.77;10.60;;;;;;;14.72;87.66;100732.03;4987030;28;20340;-70
2023/07/02 04:11:30;;;;;;;25.38;11.20;;;;;;;14.71;87.54;100738.50;4988652;28;20036;-70
2023/07/02 04:13:56;;;;;;;29.15;10.95;;;;;;;14.70;87.31;100736.78;4988686;28;20125;-70
2023/07/02 04:16:21;;;;;;;24.48;10.95;;;;;;;14.72;86.49;100742.13;4989258;28;20390;-70
2023/07/02 04:18:46;;;;;;;27.90;10.50;;;;;;;14.73;86.41;100738.38;5003481;28;20060;-69
2023/07/02 04:21:12;;;;;;;26.92;10.88;;;;;;;14.74;85.53;100748.34;4988849;28;20034;-70
2023/07/02 04:23:37;;;;;;;29.20;10.85;;;;;;;14.73;85.71;100746.59;4988138;28;20076;-70
2023/07/02 04:26:02;;;;;;;23.55;10.07;;;;;;;14.73;84.85;100749.31;4988220;28;20031;-70
2023/07/02 04:28:28;;;;;;;29.75;10.82;;;;;;;14.73;84.15;100741.09;4988419;28;20053;-70
2023/07/02 04:30:53;;;;;;;21.52;9.90;;;;;;;14.75;84.54;100750.94;5003656;28;20371;-69
2023/07/02 04:33:19;;;;;;;25.45;10.07;;;;;;;14.78;84.31;100753.41;4988659;28;20415;-70
2023/07/02 04:35:44;;;;;;;25.75;9.95;;;;;;;14.79;82.60;100749.63;5003658;28;20050;-69
2023/07/02 04:38:10;;;;;;;19.13;8.95;;;;;;;14.82;81.89;100755.81;5007838;28;20413;-69
2023/07/02 04:40:35;;;;;;;23.08;9.30;;;;;;;14.82;81.80;100748.47;5007371;28;20584;-69
2023/07/02 04:43:01;;;;;;;24.77;10.15;;;;;;;14.89;81.61;100757.88;5006459;28;20136;-69
2023/07/02 04:45:31;;;;;;;24.60;10.13;;;;;;;14.92;80.46;100759.44;5007847;28;20361;-69
2023/07/02 04:47:57;;;;;;;24.80;9.63;;;;;;;14.96;80.69;100761.75;5000733;28;20493;-69
2023/07/02 04:50:22;;;;;;;26.63;9.25;;;;;;;15.01;80.78;100764.97;5007310;28;20040;-69
2023/07/02 04:52:48;;;;;;;23.38;9.10;;;;;;;15.08;80.85;100773.47;5006022;28;20117;-69
2023/07/02 04:55:13;;;;;;;25.48;9.95;;;;;;;15.16;80.46;100776.38;5007755;28;20030;-69
2023/07/02 04:57:38;;;;;;;25.55;9.65;;;;;;;15.22;79.73;100772.19;4997640;28;20034;-70
2023/07/02 05:00:08;;;;;;;18.60;8.73;;;;;;;15.31;81.25;100769.47;4988367;28;20034;-69
2023/07/02 05:02:33;;;;;;;20.60;8.90;;;;;;;15.35;80.27;100772.78;5001868;28;20038;-69
2023/07/02 05:04:59;;;;;;;25.40;9.98;;;;;;;15.40;80.14;100773.22;4987986;28;20340;-69
2023/07/02 05:07:24;;;;;;;26.17;9.10;;;;;;;15.43;80.09;100775.66;5002353;28;20101;-70
2023/07/02 05:09:52;;;;;;;20.75;9.00;;;;;;;15.49;79.73;100776.97;5002906;28;20037;-69
2023/07/02 05:12:18;;;;;;;19.42;9.15;;;;;;;15.56;78.97;100783.59;5007353;28;20169;-69
2023/07/02 05:14:43;;;;;;;21.23;9.68;;;;;;;15.66;79.15;100783.63;5006680;28;20505;-69
2023/07/02 05:17:09;;;;;;;23.23;9.80;;;;;;;15.69;79.06;100783.34;4998747;28;20030;-70
2023/07/02 05:19:34;;;;;;;19.02;8.35;;;;;;;15.75;79.47;100789.09;4987711;28;20049;-70
2023/07/02 05:21:59;;;;;;;18.80;8.60;;;;;;;15.76;77.22;100796.34;4987579;28;20466;-69
2023/07/02 05:24:25;;;;;;;22.60;8.52;;;;;;;15.78;77.46;100790.69;4987762;28;20034;-69
2023/07/02 05:26:50;;;;;;;24.45;9.13;;;;;;;15.76;76.62;100792.69;4987394;28;20482;-69
2023/07/02 05:29:16;;;;;;;22.48;8.43;;;;;;;15.76;76.48;100799.06;4987564;28;20022;-69
2023/07/02 05:31:41;;;;;;;22.80;8.23;;;;;;;15.80;75.85;100803.22;4988258;28;20489;-70
2023/07/02 05:34:07;;;;;;;20.05;7.55;;;;;;;15.85;75.99;100810.16;4987497;28;20541;-69
2023/07/02 05:36:34;;;;;;;21.70;8.20;;;;;;;15.94;76.45;100804.66;4987625;28;20045;-69
2023/07/02 05:39:00;;;;;;;19.20;7.93;;;;;;;16.05;75.52;100820.13;4987177;28;20418;-69
2023/07/02 05:41:30;;;;;;;18.92;7.97;;;;;;;16.12;74.68;100806.66;4987694;28;20038;-69
2023/07/02 05:43:58;;;;;;;23.10;7.15;;;;;;;16.23;75.89;100812.00;4987317;28;20452;-70
2023/07/02 05:46:24;;;;;;;22.65;7.65;;;;;;;16.30;74.57;100826.84;5002043;28;20033;-69
2023/07/02 05:48:50;;;;;;;21.20;7.65;;;;;;;16.35;70.15;100824.50;4987552;28;20126;-69
2023/07/02 05:51:22;;;;;;;22.08;8.15;;;;;;;16.41;74.26;100817.56;4987103;28;20054;-69
2023/07/02 05:53:48;;;;;;;19.27;7.93;;;;;;;16.56;73.41;100824.31;4987087;28;20039;-69
2023/07/02 05:56:13;;;;;;;20.13;7.55;;;;;;;16.67;73.44;100834.25;4987003;28;20375;-70
2023/07/02 05:58:39;;;;;;;21.45;8.18;;;;;;;16.78;70.97;100825.81;4987729;28;20493;-69
2023/07/02 06:01:05;;;;;;;18.90;7.45;;;;;;;16.93;73.15;100824.31;4987343;28;20118;-68
2023/07/02 06:03:31;;;;;;;24.50;7.68;;;;;;;17.02;70.07;100823.41;5002720;28;20049;-69
2023/07/02 06:05:56;;;;;;;22.65;7.78;;;;;;;17.12;71.01;100826.09;4987000;28;20293;-69
2023/07/02 06:08:22;;;;;;;19.10;7.30;;;;;;;17.23;71.88;100822.25;4994896;28;20034;-69
2023/07/02 06:10:47;;;;;;;22.77;8.13;;;;;;;17.27;69.94;100837.44;5004547;28;20092;-69
2023/07/02 06:13:13;;;;;;;21.05;7.78;;;;;;;17.22;69.19;100843.38;5006169;28;20069;-69
2023/07/02 06:15:39;;;;;;;19.77;7.38;;;;;;;17.18;70.58;100841.09;5009111;28;20041;-69
2023/07/02 06:18:04;;;;;;;23.67;8.02;;;;;;;17.23;70.18;100847.84;4997689;28;20060;-69
2023/07/02 06:20:30;;;;;;;20.17;7.80;;;;;;;17.34;69.67;100849.50;4990754;28;20081;-70
2023/07/02 06:22:55;;;;;;;20.13;7.30;;;;;;;17.57;70.69;100847.19;4991226;28;20645;-69
2023/07/02 06:25:21;;;;;;;19.10;7.50;;;;;;;17.56;69.50;100848.22;4990722;28;20101;-70
2023/07/02 06:27:46;;;;;;;19.45;6.10;;;;;;;17.52;67.88;100846.78;5005615;28;20180;-69
2023/07/02 06:30:12;;;;;;;21.73;6.88;;;;;;;17.55;69.88;100854.75;4999427;28;20040;-69
2023/07/02 06:32:37;;;;;;;20.25;6.63;;;;;;;17.63;67.98;100857.59;5001603;28;20050;-69
2023/07/02 06:35:05;;;;;;;21.38;7.05;;;;;;;17.72;68.09;100861.25;4989489;28;20565;-69
2023/07/02 06:37:31;;;;;;;18.85;6.13;;;;;;;17.81;66.96;100861.25;5004854;28;20088;-70
2023/07/02 06:39:56;;;;;;;18.67;6.32;;;;;;;17.82;66.47;100857.47;4990377;28;20041;-69
2023/07/02 06:42:22;;;;;;;19.45;5.85;;;;;;;17.92;68.16;100853.75;4990412;28;20134;-69
2023/07/02 06:44:47;;;;;;;14.38;6.45;;;;;;;18.08;67.04;100851.97;4990394;28;20149;-69
2023/07/02 06:47:12;;;;;;;14.73;6.65;;;;;;;18.28;66.75;100860.09;4991771;28;20055;-69
2023/07/02 06:49:38;;;;;;;18.33;6.38;;;;;;;18.38;66.23;100855.31;4990252;28;20088;-69
2023/07/02 06:52:04;;;;;;;16.52;5.38;;;;;;;18.42;64.96;100866.88;4989718;28;20038;-69
2023/07/02 06:54:29;;;;;;;18.83;6.15;;;;;;;18.43;65.09;100871.38;4989679;28;20417;-70
2023/07/02 06:56:55;;;;;;;18.98;6.20;;;;;;;18.46;65.45;100868.28;4990650;28;20045;-69
2023/07/02 06:59:21;;;;;;;18.15;6.15;;;;;;;18.40;64.41;100874.44;4990651;28;20474;-69
2023/07/02 07:01:47;;;;;;;16.38;6.10;;;;;;;18.42;66.15;100883.38;4990881;28;20030;-70
2023/07/02 07:04:12;;;;;;;13.73;6.13;;;;;;;18.31;64.40;100888.16;4990552;28;20049;-69
2023/07/02 07:06:38;;;;;;;16.83;6.00;;;;;;;18.36;65.09;100887.66;5004266;28;20050;-69
2023/07/02 07:09:03;;;;;;;20.75;6.60;;;;;;;18.41;64.33;100887.19;4989971;28;20509;-69
2023/07/02 07:11:29;;;;;;;14.30;6.72;;;;;;;18.52;64.51;100887.78;4990275;28;20030;-69
2023/07/02 07:13:54;;;;;;;15.05;5.93;;;;;;;18.49;61.61;100892.75;4990220;28;20045;-69
2023/07/02 07:16:19;;;;;;;17.13;5.63;;;;;;;18.49;61.39;100896.38;4987857;28;20045;-70
2023/07/02 07:18:45;;;;;;;13.35;6.13;;;;;;;18.66;64.90;100893.75;4990877;28;20064;-70
2023/07/02 07:21:10;;;;;;;13.18;5.90;;;;;;;18.82;63.26;100902.13;5005482;28;20652;-69
2023/07/02 07:23:36;;;;;;;14.75;6.47;;;;;;;18.93;62.38;100898.22;4989598;28;20080;-69
2023/07/02 07:26:01;;;;;;;14.95;6.07;;;;;;;18.97;62.27;100900.47;4988507;28;20177;-69
2023/07/02 07:28:26;;;;;;;17.05;6.40;;;;;;;19.00;61.99;100902.06;4990019;28;20049;-72
2023/07/02 07:30:52;;;;;;;16.13;5.90;;;;;;;19.00;59.80;100900.16;4990529;28;20554;-69
2023/07/02 07:33:17;;;;;;;21.23;5.97;;;;;;;18.95;58.53;100898.94;5005633;28;20494;-69
2023/07/02 07:35:42;;;;;;;19.08;5.32;;;;;;;19.06;61.68;100915.19;5008348;28;20513;-69
2023/07/02 07:38:08;;;;;;;13.38;5.53;;;;;;;19.23;60.02;100924.41;5008859;28;20054;-69
2023/07/02 07:40:33;;;;;;;15.90;5.93;;;;;;;19.30;58.53;100923.56;4998413;28;20561;-69
2023/07/02 07:42:59;;;;;;;11.90;5.25;;;;;;;19.19;58.29;100928.53;4989714;28;20050;-69
2023/07/02 07:45:24;;;;;;;13.18;5.30;;;;;;;19.17;59.28;100930.59;4989564;28;20042;-69
2023/07/02 07:47:49;;;;;;;13.00;5.80;;;;;;;19.25;59.45;100936.13;4997059;28;20541;-69
2023/07/02 07:50:15;;;;;;;12.10;5.50;;;;;;;19.29;58.61;100935.63;5009651;28;20427;-69
2023/07/02 07:52:41;;;;;;;15.82;5.20;;;;;;;19.42;59.23;100929.66;5008616;28;20068;-68
2023/07/02 07:55:07;;;;;;;17.15;5.03;;;;;;;19.53;58.84;100932.09;5008359;28;20504;-69
2023/07/02 07:57:35;;;;;;;13.63;5.45;;;;;;;19.65;60.17;100937.38;4999982;28;20038;-70
2023/07/02 08:00:00;;;;;;;13.45;5.65;;;;;;;19.64;57.48;100935.66;4989617;28;20416;-69
2023/07/02 08:02:25;;;;;;;19.95;5.63;;;;;;;19.72;60.46;100924.59;4990174;28;20042;-69
2023/07/02 08:04:51;;;;;;;13.02;5.40;;;;;;;19.82;61.09;100933.63;4989383;28;20414;-69
2023/07/02 08:07:16;;;;;;;16.73;5.68;;;;;;;19.89;58.68;100923.59;4988267;28;20038;-69
2023/07/02 08:09:41;;;;;;;11.35;5.50;;;;;;;19.95;59.38;100927.59;4989149;28;20066;-69
2023/07/02 08:12:07;;;;;;;14.00;5.13;;;;;;;20.05;58.82;100931.94;5001636;28;20052;-70
2023/07/02 08:14:35;;;;;;;15.05;5.68;;;;;;;20.00;58.89;100950.03;5008591;28;20053;-69
2023/07/02 08:17:00;;;;;;;14.35;5.57;;;;;;;19.87;58.35;100934.84;5005301;28;20041;-69
2023/07/02 08:19:26;;;;;;;15.50;5.90;;;;;;;19.86;58.64;100938.63;4989040;28;20042;-69
2023/07/02 08:21:51;;;;;;;11.20;5.20;;;;;;;19.78;58.57;100944.13;4988085;28;20048;-70
2023/07/02 08:24:17;;;;;;;18.27;5.85;;;;;;;19.97;60.26;100944.88;5007751;28;20061;-70
2023/07/02 08:26:42;;;;;;;14.88;5.70;;;;;;;20.17;60.32;100953.69;5004573;28;20105;-70
2023/07/02 08:29:08;;;;;;;15.80;6.13;;;;;;;20.10;61.57;100959.91;4989023;28;20464;-69
2023/07/02 08:31:34;;;;;;;12.52;5.32;;;;;;;19.99;58.34;100953.81;4988857;28;20022;-69
2023/07/02 08:34:00;;;;;;;17.48;5.60;;;;;;;20.06;60.46;100964.03;4990667;28;20053;-69
2023/07/02 08:36:25;;;;;;;17.52;5.82;;;;;;;20.12;60.79;100959.72;4987531;28;20351;-69
2023/07/02 08:38:50;;;;;;;14.55;5.53;;;;;;;20.25;58.96;100957.31;4988145;28;20857;-69
2023/07/02 08:41:16;;;;;;;14.15;5.18;;;;;;;20.21;60.48;100953.19;4987863;28;20478;-70
2023/07/02 08:43:43;;;;;;;12.77;5.28;;;;;;;20.37;59.70;100961.47;4988893;28;20482;-70
2023/07/02 08:46:09;;;;;;;10.73;5.57;;;;;;;20.49;58.99;100973.09;4988427;28;20034;-69
2023/07/02 08:48:35;;;;;;;13.10;5.55;;;;;;;20.55;58.48;100957.69;4999205;28;20100;-69
2023/07/02 08:51:02;;;;;;;13.75;5.57;;;;;;;20.58;57.52;100960.13;5007713;28;20191;-69
2023/07/02 08:53:33;;;;;;;14.77;5.32;;;;;;;20.47;57.31;100969.66;5007422;28;20052;-69
2023/07/02 08:56:03;;;;;;;14.43;5.93;;;;;;;20.17;56.56;100970.25;5006630;28;20033;-69
2023/07/02 08:58:28;;;;;;;16.00;6.00;;;;;;;19.86;57.54;100968.13;5008025;28;20042;-69
2023/07/02 09:01:10;;;;;;;16.15;5.68;;;;;;;19.81;59.36;100962.25;5006538;28;20480;-69
2023/07/02 09:03:38;;;;;;;14.90;5.65;;;;;;;20.03;58.95;100961.59;4992125;28;20715;-69
2023/07/02 09:06:08;;;;;;;13.18;5.43;;;;;;;20.20;60.62;100965.28;4988241;28;20989;-69
2023/07/02 09:08:34;;;;;;;11.57;5.15;;;;;;;20.19;59.29;100959.88;4987501;28;20043;-70
2023/07/02 09:11:20;;;;;;;10.60;5.18;;;;;;;20.27;58.60;100963.53;4987205;28;20076;-70
2023/07/02 09:13:49;;;;;;;12.07;5.10;;;;;;;20.25;58.45;100962.84;4994544;28;20509;-69
2023/07/02 09:16:28;;;;;;;15.80;5.20;;;;;;;20.33;57.94;100964.75;5008096;28;20030;-71
2023/07/02 09:19:04;;;;;;;11.07;5.07;;;;;;;20.19;57.23;100971.84;4988760;28;20380;-70
2023/07/02 09:21:43;;;;;;;13.57;4.80;;;;;;;20.02;57.98;100986.66;5002828;28;20406;-70
2023/07/02 09:24:15;;;;;;;12.35;5.40;;;;;;;19.90;56.80;100975.03;4988020;28;20105;-70
2023/07/02 09:26:53;;;;;;;16.17;5.40;;;;;;;20.06;58.36;100971.47;4987594;28;20072;-70
2023/07/02 09:29:32;;;;;;;12.65;5.13;;;;;;;20.37;56.91;100967.00;4987823;28;20050;-70
2023/07/02 09:31:59;;;;;;;13.23;4.82;;;;;;;;;;4988606;28;20057;-70
2023/07/02 09:34:28;;;;;;;13.25;5.60;;;;;;;20.97;57.10;100968.53;4988057;28;20088;-70
2023/07/02 09:36:54;;;;;;;14.90;5.38;;;;;;;21.25;53.31;100962.59;4987080;28;20104;-70
2023/07/02 09:39:26;;;;;;;16.55;5.25;;;;;;;21.37;51.85;100961.22;4987444;28;20050;-69
2023/07/02 09:41:54;;;;;;;15.20;4.88;;;;;;;21.42;50.80;100957.91;5002208;28;20057;-69
2023/07/02 09:44:19;;;;;;;16.38;5.53;;;;;;;21.21;51.42;100955.69;4987658;28;20447;-69
2023/07/02 09:46:55;;;;;;;13.20;5.28;;;;;;;20.99;52.15;100960.09;4987648;28;20053;-69
2023/07/02 09:49:22;;;;;;;10.90;5.68;;;;;;;20.73;52.38;100960.28;5010427;28;20091;-69
2023/07/02 09:51:48;;;;;;;12.98;5.57;;;;;;;20.41;52.05;100958.38;5010648;28;20108;-69
2023/07/02 09:54:13;;;;;;;12.77;5.07;;;;;;;20.11;54.32;100960.75;5011443;28;20482;-69
2023/07/02 09:56:39;;;;;;;13.45;4.93;;;;;;;20.07;56.01;100960.25;4997989;28;20479;-70
2023/07/02 09:59:05;;;;;;;17.52;5.57;;;;;;;20.16;54.35;100972.16;5006732;28;20034;-69
2023/07/02 10:01:30;;;;;;;13.45;5.47;;;;;;;20.00;52.25;100972.97;4991637;28;20046;-70
2023/07/02 10:03:55;;;;;;;10.77;4.88;;;;;;;19.81;54.35;100976.91;4991699;28;20525;-69
2023/07/02 10:06:21;;;;;;;15.27;5.40;;;;;;;19.75;53.94;100979.50;4991167;28;20088;-69
2023/07/02 10:08:55;;;;;;;12.15;5.05;;;;;;;19.72;55.62;100983.44;4990870;28;20030;-69
2023/07/02 10:11:34;;;;;;;13.32;5.55;;;;;;;19.85;55.06;100978.31;4989291;28;20513;-69
2023/07/02 10:14:00;;;;;;;16.17;5.50;;;;;;;19.84;54.30;100984.88;4991068;28;20040;-69
2023/07/02 10:16:27;;;;;;;11.63;4.85;;;;;;;19.81;55.33;100987.94;4991261;28;20053;-69
2023/07/02 10:18:53;;;;;;;14.60;5.22;;;;;;;19.63;54.16;100987.19;4993801;28;20388;-69
2023/07/02 10:21:19;;;;;;;16.38;5.38;;;;;;;19.38;54.47;100991.72;4990840;28;20038;-69
2023/07/02 10:23:44;;;;;;;16.20;5.40;;;;;;;19.26;56.90;100990.28;4991260;28;20045;-69
2023/07/02 10:26:15;;;;;;;13.80;5.22;;;;;;;19.21;56.19;100992.66;4990828;28;20490;-69
2023/07/02 10:28:40;;;;;;;14.70;6.03;;;;;;;19.28;57.97;100996.50;4991464;28;20352;-69
2023/07/02 10:31:17;;;;;;;16.83;5.68;;;;;;;19.26;56.94;100993.06;4991084;28;20026;-69
2023/07/02 10:33:44;;;;;;;12.20;5.15;;;;;;;19.22;56.96;101003.53;4992417;28;20046;-70
2023/07/02 10:36:18;;;;;;;16.88;5.45;;;;;;;19.25;55.76;101005.94;4999231;28;20529;-69
2023/07/02 10:38:43;;;;;;;14.57;5.80;;;;;;;19.25;55.76;100996.81;4991376;28;20552;-70
2023/07/02 10:41:08;;;;;;;15.32;5.47;;;;;;;19.52;57.64;100995.75;5005044;28;20022;-69
2023/07/02 10:43:34;;;;;;;17.10;5.50;;;;;;;19.67;57.94;100996.88;4991057;28;20062;-70
2023/07/02 10:46:00;;;;;;;14.30;5.65;;;;;;;19.62;54.91;100994.63;4990839;28;20084;-70
2023/07/02 10:48:25;;;;;;;14.02;5.82;;;;;;;19.53;54.70;101000.22;4999540;28;20390;-69
2023/07/02 10:50:51;;;;;;;15.38;5.68;;;;;;;19.47;56.77;101003.66;5010180;28;20111;-69
2023/07/02 10:53:19;;;;;;;11.52;5.65;;;;;;;19.58;58.60;101001.50;5009473;28;20026;-70
2023/07/02 10:55:45;;;;;;;11.52;5.38;;;;;;;19.61;57.32;101005.84;4997546;28;20405;-69
2023/07/02 10:58:12;;;;;;;15.27;5.85;;;;;;;19.54;59.06;101002.00;4991091;28;20030;-69
2023/07/02 11:00:45;;;;;;;14.52;5.32;;;;;;;19.42;56.08;101008.81;4993149;28;20051;-69
2023/07/02 11:03:25;;;;;;;17.85;6.20;;;;;;;19.42;57.46;101004.16;5000182;28;20042;-69
2023/07/02 11:05:51;;;;;;;13.57;6.25;;;;;;;19.62;58.05;101010.31;4988786;28;20513;-69
2023/07/02 11:08:17;;;;;;;12.77;5.53;;;;;;;19.88;56.62;101007.50;4989835;28;20089;-70
2023/07/02 11:10:43;;;;;;;16.38;5.47;;;;;;;20.15;58.48;101013.78;4990280;28;20046;-69